Flight Track Log - Related Links

Times and Time Zones

All times are in EDT time to prevent confusion due to time zone crossing. See the JBU661 flight status page for this flight to view local times or setup timezone preferences in your user account.

Time Position Orientation Groundspeed Altitude Reporting Facility
EDT Latitude Longitude Course Direction KTS MPH feet Rate Location/Type
Thu 08:31:02 AM 40.6440 -73.7750 30° Northeast  Level FlightAware ADS-B
Thu 08:43:00 AM 40.5333 -73.5928 90° East  Level FlightAware Approximate
Thu 08:44:00 AM 40.4804 -73.4952 128° Southeast  Level FlightAware Approximate
Thu 08:45:00 AM 40.4133 -73.3833 128° Southeast  Level FlightAware Approximate
Thu 08:46:00 AM 40.3438 -73.2741 131° Southeast  Level FlightAware Approximate
Thu 08:47:00 AM 40.2753 -73.1640 128° Southeast  Level FlightAware Approximate
Thu 08:48:00 AM 40.2084 -73.0522 128° Southeast  Level FlightAware Approximate
Thu 08:52:28 AM 40.6310 -73.7780 298° West 96 110  Level FlightAware ADS-B
Thu 08:52:52 AM 40.6390 -73.7970 299° West 177 204 818 Level FlightAware ADS-B
Thu 08:53:12 AM 40.6480 -73.8150 303° West 176 203 600 1,929 Climbing FlightAware ADS-B
Thu 08:53:20 AM 40.6490 -73.8200 285° West 175 201 900 2,250 Climbing FlightAware ADS-B
Thu 08:53:28 AM 40.6500 -73.8320 276° West 182 209 1,200 2,000 Climbing FlightAware ADS-B
Thu 08:53:32 AM 40.6490 -73.8360 252° West 186 214 1,300 1,000 Climbing FlightAware ADS-B
Thu 08:53:40 AM 40.6450 -73.8440 237° Southwest 191 220 1,400 857 Climbing FlightAware ADS-B
Thu 08:54:00 AM 40.6340 -73.8640 234° Southwest 212 244 1,700 1,000 Climbing FlightAware ADS-B
Thu 08:54:16 AM 40.6230 -73.8790 226° Southwest 228 262 2,000 1,250 Climbing FlightAware ADS-B
Thu 08:54:24 AM 40.6150 -73.8850 210° Southwest 240 276 2,200 1,000 Climbing FlightAware ADS-B
Thu 08:54:28 AM 40.6110 -73.8870 201° Southwest 244 281 2,200 1,200 Level FlightAware ADS-B
Thu 08:54:34 AM 40.6040 -73.8880 186° South 252 290 2,400 1,929 Climbing FlightAware ADS-B
Thu 08:54:56 AM 40.5800 -73.8760 159° South 276 318 3,100 2,000 Climbing FlightAware ADS-B
Thu 08:55:04 AM 40.5720 -73.8660 136° Southeast 284 327 3,400 2,250 Climbing FlightAware ADS-B
Thu 08:55:12 AM 40.5670 -73.8550 121° Southeast 287 330 3,700 3,000 Climbing FlightAware ADS-B
Thu 08:55:30 AM 40.5560 -73.8270 117° Southeast 282 325 4,700 3,000 Climbing FlightAware ADS-B
Thu 08:55:52 AM 40.5430 -73.7920 116° Southeast 290 334 5,700 2,571 Climbing FlightAware ADS-B
Thu 08:56:12 AM 40.5290 -73.7610 121° Southeast 295 339 6,500 2,455 Climbing FlightAware ADS-B
Thu 08:56:36 AM 40.5140 -73.7230 117° Southeast 301 346 7,500 2,591 Climbing FlightAware ADS-B
Thu 08:56:56 AM 40.5010 -73.6900 117° Southeast 304 350 8,400 2,250 Climbing FlightAware ADS-B
Thu 08:57:16 AM 40.4880 -73.6560 117° Southeast 313 360 9,000 2,045 Climbing FlightAware ADS-B
Thu 08:57:40 AM 40.4740 -73.6190 116° Southeast 317 365 9,900 1,607 Climbing FlightAware ADS-B
Thu 08:58:12 AM 40.4500 -73.5580 117° Southeast 346 398 10,500 943 Climbing FlightAware ADS-B
Thu 08:58:50 AM 40.4210 -73.4820 117° Southeast 382 440 11,000 1,034 Climbing FlightAware ADS-B
Thu 08:59:10 AM 40.4020 -73.4420 122° Southeast 393 452 11,500 1,556 Climbing FlightAware ADS-B
Thu 08:59:44 AM 40.3580 -73.3870 136° Southeast 401 461 12,400 1,818 Climbing FlightAware ADS-B
Thu 09:00:16 AM 40.3150 -73.3350 137° Southeast 404 465 13,500 1,971 Climbing FlightAware ADS-B
Thu 09:00:54 AM 40.2610 -73.2690 137° Southeast 410 472 14,700 1,917 Climbing FlightAware ADS-B
Thu 09:01:28 AM 40.2150 -73.2110 136° Southeast 410 472 15,800 1,714 Climbing FlightAware ADS-B
Thu 09:02:04 AM 40.1700 -73.1550 136° Southeast 415 478 16,700 1,917 Climbing FlightAware ADS-B
Thu 09:02:40 AM 40.1180 -73.0900 136° Southeast 410 472 18,100 1,765 Climbing FlightAware ADS-B
Thu 09:03:12 AM 40.0720 -73.0340 137° Southeast 419 482 18,700 1,200 Climbing FlightAware ADS-B
Thu 09:03:45 AM 40.0280 -72.9790 136° Southeast 425 489 19,400 1,250 Climbing FlightAware ADS-B
Thu 09:04:24 AM 39.9690 -72.9080 137° Southeast 433 498 20,200 1,231 Climbing FlightAware ADS-B
Thu 09:05:03 AM 39.9120 -72.8380 137° Southeast 439 505 21,000 1,247 Climbing FlightAware ADS-B
Thu 09:05:41 AM 39.8540 -72.7660 136° Southeast 443 510 21,800 1,167 Climbing FlightAware ADS-B
Thu 09:06:15 AM 39.8020 -72.7030 137° Southeast 451 519 22,400 1,014 Climbing FlightAware ADS-B
Thu 09:06:52 AM 39.7450 -72.6340 137° Southeast 455 524 23,000 1,029 Climbing FlightAware ADS-B
Thu 09:07:25 AM 39.6950 -72.5730 137° Southeast 459 528 23,600 1,200 Climbing FlightAware ADS-B
Thu 09:08:07 AM 39.6320 -72.4960 137° Southeast 460 529 24,500 1,059 Climbing FlightAware ADS-B
Thu 09:08:50 AM 39.5630 -72.4120 137° Southeast 468 539 25,100 857 Climbing FlightAware ADS-B
Thu 09:09:31 AM 39.4990 -72.3360 137° Southeast 473 544 25,700 429 Climbing FlightAware ADS-B
Thu 09:10:14 AM 39.4390 -72.2610 136° Southeast 474 545 25,700 857 Level FlightAware ADS-B
Thu 09:10:48 AM 39.3710 -72.1820 138° Southeast 482 555 26,800 1,000 Climbing FlightAware ADS-B
Thu 09:11:32 AM 39.3100 -72.1080 137° Southeast 486 559 27,000 711 Climbing FlightAware ADS-B
Thu 09:12:04 AM 39.2490 -72.0360 138° Southeast 492 566 27,700 1,014 Climbing FlightAware ADS-B
Thu 09:12:43 AM 39.1810 -71.9550 137° Southeast 496 571 28,200 761 Climbing FlightAware ADS-B
Thu 09:13:15 AM 39.2490 -72.0360 317° Northwest 499 574 28,600 1,075 Climbing FlightAware ADS-B
Thu 09:13:50 AM 39.2490 -72.0360 317° Northwest 499 574 29,400 658 Climbing FlightAware ADS-B
Thu 09:14:28 AM 39.1950 -71.9710 137° Southeast 499 574 29,400  Level FlightAware ADS-B
Thu 09:15:04 AM 39.1430 -71.9090 137° Southeast 499 574 29,400  Level FlightAware ADS-B
Thu 09:15:40 AM 39.0910 -71.8470 137° Southeast 499 574 29,400  Level FlightAware ADS-B
Thu 09:16:16 AM 39.0400 -71.7850 137° Southeast 499 574 29,400  Level FlightAware ADS-B
Thu 09:16:52 AM 38.9880 -71.7230 137° Southeast 499 574 29,400  Level FlightAware ADS-B
Thu 09:17:28 AM 38.9360 -71.6610 137° Southeast 499 574 29,400 2,348 Level FlightAware ADS-B
Thu 09:18:24 AM 38.6122 -71.3069 137° Southeast 484 557 33,000 2,224 Climbing New York Center
Thu 09:19:24 AM 38.5147 -71.1867 136° Southeast 484 557 33,700 650 Climbing New York Center
Thu 09:20:24 AM 38.4169 -71.0669 136° Southeast 484 557 34,300 500 Climbing New York Center
Thu 09:21:24 AM 38.3172 -70.9553 139° Southeast 484 557 34,700 300 Climbing New York Center
Thu 09:22:24 AM 38.2214 -70.8333 135° Southeast 484 557 34,900 100 Climbing New York Center
Thu 09:23:24 AM 38.1214 -70.7197 138° Southeast 484 557 34,900  Level New York Center
Thu 09:24:24 AM 38.0297 -70.6194 139° Southeast 473 544 34,900 50 Level New York Center
Thu 09:25:24 AM 37.9086 -70.5486 155° Southeast 473 544 35,000 78 Climbing New York Center
Thu 09:25:41 AM 38.0000 -70.5833 153° Southeast 460 529 35,000 -100 Level New York Oceanic (ODAPS)
Thu 09:26:24 AM 37.7833 -70.4675 153° Southeast 473 544 34,900 -58 Descending New York Center
Thu 09:27:24 AM 37.6706 -70.3864 150° Southeast 468 539 34,900 Level New York Center
Thu 09:29:00 AM 37.5109 -70.2623 154° Southeast  Level FlightAware Approximate
Thu 09:36:00 AM 36.7458 -69.8017 154° Southeast  Level FlightAware Approximate
Thu 09:37:00 AM 36.6364 -69.7366 154° Southeast  Level FlightAware Approximate
Thu 09:38:00 AM 36.5269 -69.6718 155° Southeast  Level FlightAware Approximate
Thu 09:39:00 AM 36.4174 -69.6071 155° Southeast  Level FlightAware Approximate
Thu 09:40:00 AM 36.3078 -69.5426 155° Southeast  Level FlightAware Approximate
Thu 09:41:00 AM 36.1983 -69.4783 155° Southeast  Level FlightAware Approximate
Thu 09:41:49 AM 36.1667 -69.4500 143° Southeast 480 552 35,000  Level New York Oceanic (ODAPS)
Thu 09:42:00 AM 36.0966 -69.3981 142° Southeast  Level FlightAware Approximate
Thu 09:43:00 AM 36.0013 -69.3056 142° Southeast  Level FlightAware Approximate
Thu 09:44:00 AM 35.9058 -69.2133 142° Southeast  Level FlightAware Approximate
Thu 09:45:00 AM 35.8102 -69.1212 142° Southeast  Level FlightAware Approximate
Thu 09:46:00 AM 35.7146 -69.0293 142° Southeast  Level FlightAware Approximate
Thu 09:47:00 AM 35.6189 -68.9377 142° Southeast  Level FlightAware Approximate
Thu 09:48:00 AM 35.3140 -68.6526 143° Southeast 480 552 35,000  Level FlightAware Transoceanic
Thu 09:49:00 AM 35.2071 -68.5542 143° Southeast 480 552 35,000  Level FlightAware Transoceanic
Thu 09:50:00 AM 35.1001 -68.4559 143° Southeast 480 552 35,000  Level FlightAware Transoceanic
Thu 09:51:00 AM 34.9930 -68.3580 143° Southeast 480 552 35,000  Level FlightAware Transoceanic
Thu 09:52:00 AM 34.8858 -68.2602 143° Southeast 480 552 35,000  Level FlightAware Transoceanic
Thu 09:53:00 AM 34.7785 -68.1628 143° Southeast 480 552 35,000  Level FlightAware Transoceanic
Thu 09:54:00 AM 34.6712 -68.0656 143° Southeast 480 552 35,000  Level FlightAware Transoceanic
Thu 09:55:00 AM 34.5638 -67.9686 143° Southeast 480 552 35,000  Level FlightAware Transoceanic
Thu 09:56:00 AM 34.4563 -67.8719 143° Southeast 480 552 35,000  Level FlightAware Transoceanic
Thu 09:57:00 AM 34.3487 -67.7755 144° Southeast 480 552 35,000  Level FlightAware Transoceanic
Thu 09:58:00 AM 34.2411 -67.6793 144° Southeast 480 552 35,000  Level FlightAware Transoceanic
Thu 09:59:00 AM 34.1333 -67.5833 170° South 480 552 35,000  Level FlightAware Transoceanic
Thu 10:00:00 AM 34.0056 -67.5558 170° South 480 552 35,000  Level FlightAware Transoceanic
Thu 10:01:00 AM 33.8779 -67.5285 170° South 480 552 35,000  Level FlightAware Transoceanic
Thu 10:02:00 AM 33.7503 -67.5011 170° South 480 552 35,000  Level FlightAware Transoceanic
Thu 10:03:00 AM 33.6226 -67.4739 170° South 480 552 35,000  Level FlightAware Transoceanic
Thu 10:04:00 AM 33.4948 -67.4467 170° South 480 552 35,000  Level FlightAware Transoceanic
Thu 10:05:00 AM 33.3671 -67.4197 170° South 480 552 35,000  Level FlightAware Transoceanic
Thu 10:06:00 AM 33.2394 -67.3927 170° South 480 552 35,000  Level FlightAware Transoceanic
Thu 10:32:53 AM 29.9167 -66.7167 170° South 448 516 35,000  Level New York Oceanic (ODAPS)
Thu 10:40:00 AM 28.9205 -66.5230 170° South 448 516 35,000  Level FlightAware Transoceanic
Thu 10:41:00 AM 28.7960 -66.4991 170° South 448 516 35,000  Level FlightAware Transoceanic
Thu 10:42:00 AM 28.6714 -66.4752 170° South 448 516 35,000  Level FlightAware Transoceanic
Thu 10:43:00 AM 28.5469 -66.4514 170° South 448 516 35,000  Level FlightAware Transoceanic
Thu 10:44:00 AM 28.4223 -66.4276 170° South 448 516 35,000  Level FlightAware Transoceanic
Thu 10:45:00 AM 28.2978 -66.4039 170° South 448 516 35,000  Level FlightAware Transoceanic
Thu 10:46:00 AM 28.1732 -66.3803 171° South 448 516 35,000  Level FlightAware Transoceanic
Thu 10:47:00 AM 28.0487 -66.3567 171° South 448 516 35,000  Level FlightAware Transoceanic
Thu 10:48:00 AM 27.9241 -66.3331 171° South 448 516 35,000  Level FlightAware Transoceanic
Thu 10:49:00 AM 27.7995 -66.3096 171° South 448 516 35,000  Level FlightAware Transoceanic
Thu 10:50:00 AM 27.6749 -66.2862 171° South 448 516 35,000  Level FlightAware Transoceanic
Thu 10:51:00 AM 27.5504 -66.2628 171° South 448 516 35,000  Level FlightAware Transoceanic
Thu 10:52:00 AM 27.4258 -66.2395 171° South 448 516 35,000  Level FlightAware Transoceanic
Thu 10:53:00 AM 27.3012 -66.2162 171° South 448 516 35,000  Level FlightAware Transoceanic
Thu 10:54:00 AM 27.1766 -66.1929 171° South 448 516 35,000  Level FlightAware Transoceanic
Thu 10:55:00 AM 27.0520 -66.1698 171° South 448 516 35,000  Level FlightAware Transoceanic
Thu 10:56:00 AM 26.9274 -66.1467 171° South 448 516 35,000  Level FlightAware Transoceanic
Thu 10:57:00 AM 26.8028 -66.1236 171° South 448 516 35,000  Level FlightAware Transoceanic
Thu 10:58:00 AM 26.6782 -66.1005 171° South 448 516 35,000  Level FlightAware Transoceanic
Thu 10:59:00 AM 26.5536 -66.0776 171° South 448 516 35,000  Level FlightAware Transoceanic
Thu 11:00:00 AM 26.4290 -66.0547 171° South 448 516 35,000  Level FlightAware Transoceanic
Thu 11:01:00 AM 26.3044 -66.0318 171° South 448 516 35,000  Level FlightAware Transoceanic
Thu 11:02:00 AM 26.1797 -66.0090 171° South 448 516 35,000  Level FlightAware Transoceanic
Thu 11:03:00 AM 26.0551 -65.9862 171° South 448 516 35,000  Level FlightAware Transoceanic
Thu 11:04:00 AM 25.9305 -65.9635 171° South 448 516 35,000  Level FlightAware Transoceanic
Thu 11:05:00 AM 25.8058 -65.9408 171° South 448 516 35,000  Level FlightAware Transoceanic
Thu 11:06:00 AM 25.6812 -65.9181 171° South 448 516 35,000  Level FlightAware Transoceanic
Thu 11:07:00 AM 25.5566 -65.8956 171° South 448 516 35,000  Level FlightAware Transoceanic
Thu 11:08:00 AM 25.4319 -65.8730 171° South 448 516 35,000  Level FlightAware Transoceanic
Thu 11:09:00 AM 25.3073 -65.8505 171° South 448 516 35,000  Level FlightAware Transoceanic
Thu 11:10:00 AM 25.1826 -65.8281 171° South 448 516 35,000  Level FlightAware Transoceanic
Thu 11:11:00 AM 25.0580 -65.8057 171° South 448 516 35,000  Level FlightAware Transoceanic
Thu 11:12:00 AM 24.9333 -65.7833 171° South 448 516 35,000  Level FlightAware Transoceanic
Thu 11:13:00 AM 24.8139 -65.7623 171° South 448 516 35,000  Level FlightAware Transoceanic
Thu 11:14:00 AM 24.6945 -65.7413 171° South 448 516 35,000  Level FlightAware Transoceanic
Thu 11:15:00 AM 24.5750 -65.7203 171° South 448 516 35,000  Level FlightAware Transoceanic
Thu 11:16:00 AM 24.4556 -65.6994 171° South 448 516 35,000  Level FlightAware Transoceanic
Thu 11:17:00 AM 24.3362 -65.6785 171° South 448 516 35,000  Level FlightAware Transoceanic
Thu 11:18:00 AM 24.2167 -65.6576 171° South 448 516 35,000  Level FlightAware Transoceanic
Thu 11:19:00 AM 24.0973 -65.6368 171° South 448 516 35,000  Level FlightAware Transoceanic
Thu 11:20:00 AM 23.9778 -65.6160 171° South 448 516 35,000  Level FlightAware Transoceanic
Thu 11:21:00 AM 23.8584 -65.5953 171° South 448 516 35,000  Level FlightAware Transoceanic
Thu 11:22:00 AM 23.7389 -65.5746 171° South 448 516 35,000  Level FlightAware Transoceanic
Thu 11:23:00 AM 23.6195 -65.5539 171° South 448 516 35,000  Level FlightAware Transoceanic
Thu 11:24:00 AM 23.5481 -65.4470 126° Southeast  Level FlightAware Approximate
Thu 11:25:00 AM 23.4766 -65.3402 126° Southeast  Level FlightAware Approximate
Thu 11:26:00 AM 23.4006 -65.3782 170° South  Level FlightAware Approximate
Thu 11:26:14 AM 23.5000 -65.5333 165° South 433 498 35,000  Level New York Oceanic (ODAPS)
Thu 11:27:00 AM 23.2812 -65.3558 170° South  Level FlightAware Approximate
Thu 11:28:00 AM 23.1617 -65.3334 170° South  Level FlightAware Approximate
Thu 11:29:00 AM 23.0422 -65.3111 170° South  Level FlightAware Approximate
Thu 11:30:00 AM 22.9227 -65.2888 170° South  Level FlightAware Approximate
Thu 11:31:00 AM 22.8032 -65.2665 170° South  Level FlightAware Approximate
Thu 11:32:00 AM 22.6661 -65.2974 165° South 433 498 35,000  Level FlightAware Transoceanic
Thu 11:33:00 AM 22.5470 -65.2639 165° South 433 498 35,000  Level FlightAware Transoceanic
Thu 11:34:00 AM 22.4278 -65.2305 165° South 433 498 35,000  Level FlightAware Transoceanic
Thu 11:35:00 AM 22.3087 -65.1972 165° South 433 498 35,000  Level FlightAware Transoceanic
Thu 11:36:00 AM 22.1895 -65.1639 166° South 433 498 35,000  Level FlightAware Transoceanic
Thu 11:37:00 AM 22.0703 -65.1306 166° South 433 498 35,000  Level FlightAware Transoceanic
Thu 11:38:00 AM 21.9511 -65.0974 166° South 433 498 35,000  Level FlightAware Transoceanic
Thu 11:38:51 AM 21.9000 -65.0833 166° South 460 529 35,000  Level San Juan Center
Thu 11:39:00 AM 21.8319 -65.0643 166° South 433 498 35,000  Level FlightAware Transoceanic
Thu 11:40:00 AM 21.7127 -65.0312 166° South 433 498 35,000  Level FlightAware Transoceanic
Thu 11:41:00 AM 21.5935 -64.9982 166° South 433 498 35,000  Level FlightAware Transoceanic
Thu 11:42:00 AM 21.4743 -64.9652 166° South 433 498 35,000  Level FlightAware Transoceanic
Thu 11:43:00 AM 21.3551 -64.9323 166° South 433 498 35,000  Level FlightAware Transoceanic
Thu 11:44:59 AM 21.2390 -64.7100 166° South 444 511 35,000  Level FlightAware ADS-B
Thu 11:45:37 AM 21.1810 -64.6720 149° Southeast 444 511 35,000  Level FlightAware ADS-B
Thu 11:46:14 AM 21.1250 -64.6370 150° Southeast 444 511 35,000  Level FlightAware ADS-B
Thu 11:46:50 AM 21.0720 -64.6020 148° Southeast 444 511 35,000  Level FlightAware ADS-B
Thu 11:47:26 AM 21.0180 -64.5670 149° Southeast 444 511 35,000  Level FlightAware ADS-B
Thu 11:48:03 AM 20.9620 -64.5320 150° Southeast 444 511 35,000  Level FlightAware ADS-B
Thu 11:48:41 AM 20.9050 -64.4950 149° Southeast 444 511 35,000  Level FlightAware ADS-B
Thu 11:49:15 AM 20.8550 -64.4620 148° Southeast 444 511 35,000  Level FlightAware ADS-B
Thu 11:49:51 AM 20.8010 -64.4280 150° Southeast 444 511 35,000  Level FlightAware ADS-B
Thu 11:50:24 AM 20.6630 -64.3560 154° Southeast 439 505 35,000  Level FlightAware ADS-B
Thu 11:51:03 AM 20.6050 -64.3200 150° Southeast 439 505 35,000  Level FlightAware ADS-B
Thu 11:51:39 AM 20.5510 -64.2870 150° Southeast 439 505 35,000  Level FlightAware ADS-B
Thu 11:52:15 AM 20.4980 -64.2540 150° Southeast 439 505 35,000  Level FlightAware ADS-B
Thu 11:52:54 AM 20.3970 -64.1930 150° Southeast 440 506 35,000  Level FlightAware ADS-B
Thu 11:53:26 AM 20.3480 -64.1640 151° Southeast 440 506 35,000  Level FlightAware ADS-B
Thu 11:54:02 AM 20.2940 -64.1300 149° Southeast 440 506 35,000  Level FlightAware ADS-B
Thu 11:54:38 AM 20.2400 -64.0970 150° Southeast 440 506 35,000  Level FlightAware ADS-B
Thu 11:55:12 AM 20.1890 -64.0660 150° Southeast 440 506 35,000  Level FlightAware ADS-B
Thu 11:55:49 AM 20.0900 -64.0070 151° Southeast 437 503 35,000  Level FlightAware ADS-B
Thu 11:56:30 AM 20.0300 -63.9700 150° Southeast 437 503 35,000  Level FlightAware ADS-B
Thu 11:57:06 AM 19.9760 -63.9370 150° Southeast 437 503 35,000  Level FlightAware ADS-B
Thu 11:57:42 AM 19.9230 -63.9040 150° Southeast 437 503 35,000  Level FlightAware ADS-B
Thu 11:58:14 AM 19.8320 -63.8510 151° Southeast 438 504 35,000  Level FlightAware ADS-B
Thu 11:58:51 AM 19.7680 -63.8120 150° Southeast 438 504 35,000  Level FlightAware ADS-B
Thu 11:59:27 AM 19.7040 -63.7740 151° Southeast 439 505 35,000  Level FlightAware ADS-B
Thu 12:00:02 PM 19.6420 -63.7360 150° Southeast 438 504 35,000  Level FlightAware ADS-B
Thu 12:00:34 PM 19.5850 -63.7020 151° Southeast 439 505 35,000  Level FlightAware ADS-B
Thu 12:01:21 PM 19.5130 -63.6580 150° Southeast 439 505 35,000  Level FlightAware ADS-B
Thu 12:01:58 PM 19.4570 -63.6240 150° Southeast 439 505 35,000  Level FlightAware ADS-B
Thu 12:02:32 PM 19.4070 -63.5930 150° Southeast 439 505 35,000  Level FlightAware ADS-B
Thu 12:03:08 PM 19.3530 -63.5600 150° Southeast 439 505 35,000  Level FlightAware ADS-B
Thu 12:03:44 PM 19.2990 -63.5270 150° Southeast 439 505 35,000  Level FlightAware ADS-B
Thu 12:04:20 PM 19.2450 -63.4950 151° Southeast 439 505 35,000  Level FlightAware ADS-B
Thu 12:04:54 PM 19.1940 -63.4630 149° Southeast 439 505 35,000  Level FlightAware ADS-B
Thu 12:05:33 PM 19.1360 -63.4280 150° Southeast 439 505 35,000  Level FlightAware ADS-B
Thu 12:06:10 PM 19.0810 -63.3940 150° Southeast 439 505 35,000  Level FlightAware ADS-B
Thu 12:06:56 PM 19.0120 -63.3520 150° Southeast 439 505 35,000  Level FlightAware ADS-B
Thu 12:07:32 PM 18.9580 -63.3190 150° Southeast 439 505 35,000  Level FlightAware ADS-B
Thu 12:08:08 PM 18.9040 -63.2860 150° Southeast 439 505 35,000  Level FlightAware ADS-B
Thu 12:08:46 PM 18.8470 -63.2520 151° Southeast 439 505 35,000  Level FlightAware ADS-B
Thu 12:09:20 PM 18.7970 -63.2210 150° Southeast 439 505 35,000  Level FlightAware ADS-B
Thu 12:09:56 PM 18.7430 -63.1880 150° Southeast 439 505 35,000  Level FlightAware ADS-B
Thu 12:10:34 PM 18.6860 -63.1530 150° Southeast 439 505 35,000  Level FlightAware ADS-B
Thu 12:11:56 PM 18.3667 -62.9167 150° Southeast 460 529 35,000  Level San Juan Center
Thu 12:12:56 PM 18.2667 -62.8500 148° Southeast 460 529 35,000  Level San Juan Center
Thu 12:13:56 PM 18.1667 -62.7667 142° Southeast 460 529 35,000  Level San Juan Center
Thu 12:14:56 PM 18.0667 -62.6833 142° Southeast 460 529 35,000  Level San Juan Center
Thu 12:15:56 PM 17.9500 -62.6167 151° Southeast 450 518 35,000  Level San Juan Center
Thu 12:16:56 PM 17.8333 -62.5833 165° South 450 518 35,000  Level San Juan Center
Thu 12:17:56 PM 17.7167 -62.5333 158° South 460 529 35,000  Level San Juan Center
Thu 12:19:00 PM 17.6034 -62.4842 127° Southeast  Level FlightAware Approximate
Thu 12:26:00 PM 17.0818 -61.7796 151° Southeast  Level FlightAware Approximate
Thu 12:27:00 PM 16.9753 -61.7173 151° Southeast  Level FlightAware Approximate
Thu 12:28:00 PM 16.8687 -61.6551 151° Southeast  Level FlightAware Approximate
Thu 12:28:15 PM 16.6350 -61.8040 151° Southeast 450 518 35,000  Level FlightAware ADS-B
Thu 12:28:49 PM 16.5750 -61.7640 147° Southeast 448 516 35,000  Level FlightAware ADS-B
Thu 12:29:25 PM 16.5120 -61.7220 147° Southeast 446 513 35,000  Level FlightAware ADS-B
Thu 12:29:59 PM 16.4530 -61.6830 148° Southeast 445 512 35,000  Level FlightAware ADS-B
Thu 12:30:40 PM 16.3810 -61.6350 147° Southeast 445 512 35,000  Level FlightAware ADS-B
Thu 12:31:13 PM 16.3280 -61.6000 148° Southeast 446 513 35,000  Level FlightAware ADS-B
Thu 12:31:51 PM 16.2570 -61.5530 148° Southeast 446 513 35,000  Level FlightAware ADS-B
Thu 12:32:30 PM 16.1930 -61.5110 148° Southeast 446 513 35,000  Level FlightAware ADS-B
Thu 12:33:02 PM 16.1320 -61.4700 147° Southeast 446 513 35,000  Level FlightAware ADS-B
Thu 12:33:44 PM 16.0590 -61.4220 148° Southeast 447 514 35,000  Level FlightAware ADS-B
Thu 12:34:18 PM 15.9990 -61.3830 148° Southeast 448 516 35,000  Level FlightAware ADS-B
Thu 12:34:54 PM 15.9370 -61.3410 147° Southeast 449 517 35,000  Level FlightAware ADS-B
Thu 12:35:31 PM 15.8770 -61.3020 148° Southeast 449 517 35,000  Level FlightAware ADS-B
Thu 12:36:08 PM 15.8140 -61.2600 147° Southeast 449 517 35,000  Level FlightAware ADS-B
Thu 12:36:50 PM 15.7330 -61.2070 148° Southeast 449 517 35,000  Level FlightAware ADS-B
Thu 12:37:31 PM 15.6670 -61.1630 147° Southeast 448 516 35,000  Level FlightAware ADS-B
Thu 12:38:02 PM 15.6060 -61.1240 148° Southeast 447 514 35,000  Level FlightAware ADS-B
Thu 12:38:35 PM 15.5450 -61.0840 148° Southeast 446 513 35,000  Level FlightAware ADS-B
Thu 12:39:13 PM 15.4820 -61.0420 147° Southeast 447 514 35,000  Level FlightAware ADS-B
Thu 12:39:48 PM 15.4210 -61.0020 148° Southeast 447 514 35,000  Level FlightAware ADS-B
Thu 12:40:22 PM 15.3540 -60.9580 148° Southeast 447 514 35,000  Level FlightAware ADS-B
Thu 12:40:59 PM 15.2960 -60.9200 148° Southeast 447 514 35,000  Level FlightAware ADS-B
Thu 12:41:31 PM 15.2460 -60.8880 148° Southeast 448 516 35,000  Level FlightAware ADS-B
Thu 12:42:08 PM 15.1760 -60.8420 148° Southeast 449 517 35,000  Level FlightAware ADS-B
Thu 12:42:40 PM 15.1240 -60.8080 148° Southeast 450 518 35,000  Level FlightAware ADS-B
Thu 12:43:18 PM 15.0520 -60.7610 148° Southeast 451 519 35,000 -88 Level FlightAware ADS-B
Thu 12:43:48 PM 15.0040 -60.7300 148° Southeast 452 520 34,900 -1,151 Descending FlightAware ADS-B
Thu 12:44:31 PM 14.9260 -60.6790 148° Southeast 447 514 33,600 -1,890 Descending FlightAware ADS-B
Thu 12:45:01 PM 14.8680 -60.6410 148° Southeast 450 518 32,600 -1,971 Descending FlightAware ADS-B
Thu 12:45:41 PM 14.8000 -60.5960 147° Southeast 451 519 31,300 -2,000 Descending FlightAware ADS-B
Thu 12:46:13 PM 14.7420 -60.5590 148° Southeast 453 521 30,200 -1,941 Descending FlightAware ADS-B
Thu 12:46:49 PM 14.6780 -60.5170 148° Southeast 460 529 29,100 -1,971 Descending FlightAware ADS-B
Thu 12:47:23 PM 14.6150 -60.4760 148° Southeast 459 528 27,900 -1,881 Descending FlightAware ADS-B
Thu 12:47:56 PM 14.5660 -60.4440 148° Southeast 451 519 27,000 -2,000 Descending FlightAware ADS-B
Thu 12:48:32 PM 14.4930 -60.3970 148° Southeast 440 506 25,600 -1,690 Descending FlightAware ADS-B
Thu 12:49:07 PM 14.4340 -60.3580 147° Southeast 430 495 25,000 -493 Descending FlightAware ADS-B
Thu 12:49:45 PM 14.3750 -60.3200 148° Southeast 435 501 25,000  Level FlightAware ADS-B
Thu 12:50:16 PM 14.3160 -60.2820 148° Southeast 433 498 25,000 -716 Level FlightAware ADS-B
Thu 12:50:52 PM 14.2440 -60.2350 148° Southeast 399 459 24,200 -1,808 Descending FlightAware ADS-B
Thu 12:51:29 PM 14.1850 -60.1970 148° Southeast 398 458 22,800 -2,174 Descending FlightAware ADS-B
Thu 12:52:01 PM 14.1360 -60.1660 148° Southeast 396 456 21,700 -1,913 Descending FlightAware ADS-B
Thu 12:52:38 PM 14.0780 -60.1330 151° Southeast 387 445 20,600 -1,457 Descending FlightAware ADS-B
Thu 12:53:11 PM 14.0240 -60.1070 155° Southeast 387 445 20,000 -500 Descending FlightAware ADS-B
Thu 12:53:50 PM 13.9590 -60.0850 162° South 384 442 20,000  Level FlightAware ADS-B
Thu 12:54:20 PM 13.9050 -60.0710 166° South 384 442 20,000 -507 Level FlightAware ADS-B
Thu 12:55:01 PM 13.8390 -60.0520 164° South 384 442 19,400 -2,676 Descending FlightAware ADS-B
Thu 12:55:34 PM 13.7770 -60.0350 165° South 401 461 16,700 -4,846 Descending FlightAware ADS-B
Thu 12:55:53 PM 13.7440 -60.0210 158° South 408 470 15,200 -4,556 Descending FlightAware ADS-B
Thu 12:56:28 PM 13.6860 -59.9870 150° Southeast 406 467 12,600 -3,634 Descending FlightAware ADS-B
Thu 12:57:04 PM 13.6290 -59.9550 151° Southeast 379 436 10,900 -1,808 Descending FlightAware ADS-B
Thu 12:57:41 PM 13.5760 -59.9260 152° Southeast 325 374 10,400 -831 Descending FlightAware ADS-B
Thu 12:58:09 PM 13.5420 -59.9040 148° Southeast 297 342 10,000 -1,231 Descending FlightAware ADS-B
Thu 12:58:20 PM 13.5290 -59.8960 149° Southeast 294 338 9,600 -2,118 Descending FlightAware ADS-B
Thu 12:58:43 PM 13.5020 -59.8790 149° Southeast 288 331 8,800 -2,063 Descending FlightAware ADS-B
Thu 12:58:52 PM 13.4930 -59.8730 147° Southeast 286 329 8,500 -2,108 Descending FlightAware ADS-B
Thu 12:59:20 PM 13.4600 -59.8520 148° Southeast 281 323 7,500 -2,087 Descending FlightAware ADS-B
Thu 12:59:38 PM 13.4420 -59.8400 147° Southeast 279 321 6,900 -2,154 Descending FlightAware ADS-B
Thu 12:59:59 PM 13.4170 -59.8240 148° Southeast 275 316 6,100 -2,093 Descending FlightAware ADS-B
Thu 01:00:21 PM 13.3950 -59.8100 148° Southeast 272 313 5,400 -1,953 Descending FlightAware ADS-B
Thu 01:00:42 PM 13.3720 -59.7950 148° Southeast 267 307 4,700 -2,049 Descending FlightAware ADS-B
Thu 01:01:02 PM 13.3510 -59.7820 149° Southeast 265 305 4,000 -1,846 Descending FlightAware ADS-B
Thu 01:01:21 PM 13.3310 -59.7690 148° Southeast 263 303 3,500 -1,459 Descending FlightAware ADS-B
Thu 01:01:39 PM 13.3130 -59.7570 147° Southeast 262 302 3,100 -1,034 Descending FlightAware ADS-B
Thu 01:01:50 PM 13.3000 -59.7530 163° South 256 295 3,000 -176 Descending FlightAware ADS-B
Thu 01:02:13 PM 13.2730 -59.7460 166° South 264 304 3,000  Level FlightAware ADS-B
Thu 01:02:35 PM 13.2470 -59.7400 167° South 260 299 3,000  Level FlightAware ADS-B
Thu 01:02:51 PM 13.2280 -59.7360 168° South 261 300 3,000  Level FlightAware ADS-B
Thu 01:03:08 PM 13.2090 -59.7310 166° South 249 287 3,000  Level FlightAware ADS-B
Thu 01:03:29 PM 13.1860 -59.7260 168° South 226 260 3,000  Level FlightAware ADS-B
Thu 01:03:53 PM 13.1620 -59.7210 169° South 219 252 3,000  Level FlightAware ADS-B
Thu 01:04:13 PM 13.1420 -59.7160 166° South 216 249 3,000 -300 Level FlightAware ADS-B
Thu 01:04:33 PM 13.1230 -59.7120 168° South 214 246 2,800 -769 Descending FlightAware ADS-B
Thu 01:04:52 PM 13.1050 -59.7080 168° South 213 245 2,500 -977 Descending FlightAware ADS-B
Thu 01:05:16 PM 13.0810 -59.7030 169° South 209 241 2,100 -811 Descending FlightAware ADS-B
Thu 01:05:29 PM 13.0700 -59.6990 160° South 198 228 2,000 -316 Descending FlightAware ADS-B
Thu 01:05:35 PM 13.0650 -59.6950 142° Southeast 201 231 2,000  Level FlightAware ADS-B
Thu 01:05:44 PM 13.0600 -59.6880 126° Southeast 202 232 2,000  Level FlightAware ADS-B
Thu 01:06:04 PM 13.0510 -59.6720 120° Southeast 190 219 2,000  Level FlightAware ADS-B
Thu 01:06:25 PM 13.0420 -59.6550 119° Southeast 189 217 2,000  Level FlightAware ADS-B
Thu 01:06:40 PM 13.0370 -59.6430 113° Southeast 190 219 2,000  Level FlightAware ADS-B
Thu 01:07:02 PM 13.0420 -59.6260 73° East 171 197 2,000  Level FlightAware ADS-B
Thu 01:07:13 PM 13.0440 -59.6170 77° East 155 178 2,000  Level FlightAware ADS-B
Thu 01:07:34 PM 13.0480 -59.6030 74° East 147 169 2,000 -333 Level FlightAware ADS-B
Thu 01:07:49 PM 13.0500 -59.5920 79° East 145 167 1,800 -811 Descending FlightAware ADS-B
Thu 01:08:11 PM 13.0540 -59.5780 74° East 136 157 1,500 -714 Descending FlightAware ADS-B
Thu 01:08:31 PM 13.0560 -59.5670 79° East 135 155 1,300 -615 Descending FlightAware ADS-B
Thu 01:08:50 PM 13.0590 -59.5540 77° East 133 153 1,100 -600 Descending FlightAware ADS-B
Thu 01:09:11 PM 13.0630 -59.5420 71° East 133 153 900 -667 Descending FlightAware ADS-B
Thu 01:09:35 PM 13.0660 -59.5260 79° East 132 152 600 -732 Descending FlightAware ADS-B
Thu 01:09:52 PM 13.0690 -59.5160 73° East 135 155 400 -686 Descending FlightAware ADS-B
Thu 01:10:10 PM 13.0710 -59.5050 79° East 136 157 200 -667 Descending FlightAware ADS-B
Thu 01:10:30 PM 13.0740 -59.4940 74° East 78 90 -600 Descending FlightAware ADS-B

Login

Don't have an account? Register now (free) for customized features, flight alerts, and more!